createdAt,value
2018-02-20T00:00:16.193Z,33.30
2018-02-20T00:02:44.360Z,30.20
2018-02-20T00:05:12.494Z,32.92
2018-02-20T00:07:40.680Z,31.70
2018-02-20T00:10:08.818Z,31.87
2018-02-20T00:12:36.981Z,33.38
2018-02-20T00:15:05.130Z,34.08
2018-02-20T00:17:33.300Z,30.40
2018-02-20T00:20:02.202Z,30.17
2018-02-20T00:22:30.375Z,33.15
2018-02-20T00:24:58.510Z,31.80
2018-02-20T00:27:26.681Z,32.80
2018-02-20T00:29:54.847Z,32.40
2018-02-20T00:32:22.980Z,32.25
2018-02-20T00:34:51.149Z,31.75
2018-02-20T00:37:19.286Z,32.20
2018-02-20T00:39:47.454Z,33.10
2018-02-20T00:42:15.603Z,35.10
2018-02-20T00:44:43.757Z,35.30
2018-02-20T00:47:11.899Z,36.97
2018-02-20T00:49:40.061Z,34.90
2018-02-20T00:52:08.972Z,32.05
2018-02-20T00:54:37.139Z,33.72
2018-02-20T00:57:06.042Z,33.33
2018-02-20T00:59:34.212Z,33.83
2018-02-20T01:02:02.362Z,36.30
2018-02-20T01:04:30.531Z,32.85
2018-02-20T01:06:58.668Z,32.45
2018-02-20T01:09:26.830Z,30.95
2018-02-20T01:11:54.971Z,34.08
2018-02-20T01:14:23.134Z,32.50
2018-02-20T01:16:51.295Z,31.30
2018-02-20T01:19:19.457Z,31.98
2018-02-20T01:21:47.607Z,33.78
2018-02-20T01:24:15.770Z,32.22
2018-02-20T01:26:43.906Z,34.30
2018-02-20T01:29:12.834Z,32.85
2018-02-20T01:31:40.981Z,33.33
2018-02-20T01:34:09.906Z,30.77
2018-02-20T01:36:38.042Z,32.08
2018-02-20T01:39:06.982Z,29.00
2018-02-20T01:41:35.121Z,29.52
2018-02-20T01:44:03.288Z,34.05
2018-02-20T01:46:31.427Z,31.60
2018-02-20T01:48:59.597Z,30.00
2018-02-20T01:51:27.735Z,30.95
2018-02-20T01:53:55.898Z,30.85
2018-02-20T01:56:24.033Z,30.48
2018-02-20T01:58:52.197Z,29.92
2018-02-20T02:01:20.336Z,32.50
2018-02-20T02:03:48.500Z,32.88
2018-02-20T02:06:16.642Z,29.83
2018-02-20T02:08:44.816Z,31.70
2018-02-20T02:11:13.727Z,29.70
2018-02-20T02:13:41.895Z,30.37
2018-02-20T02:16:10.033Z,30.75
2018-02-20T02:18:38.197Z,30.02
2018-02-20T02:21:06.335Z,30.10
2018-02-20T02:23:34.514Z,31.98
2018-02-20T02:26:02.660Z,30.05
2018-02-20T02:28:30.820Z,32.47
2018-02-20T02:30:58.954Z,32.50
2018-02-20T02:33:27.121Z,31.60
2018-02-20T02:35:55.257Z,31.87
2018-02-20T02:38:23.421Z,29.95
2018-02-20T02:40:51.562Z,32.88
2018-02-20T02:43:19.726Z,30.50
2018-02-20T02:45:47.864Z,32.53
2018-02-20T02:48:16.030Z,33.20
2018-02-20T02:50:44.170Z,30.15
2018-02-20T02:53:13.106Z,30.52
2018-02-20T02:55:41.280Z,30.67
2018-02-20T02:58:09.431Z,29.95
2018-02-20T03:00:37.610Z,30.05
2018-02-20T03:03:05.756Z,34.25
2018-02-20T03:05:34.691Z,32.63
2018-02-20T03:08:02.821Z,32.53
2018-02-20T03:10:31.746Z,32.83
2018-02-20T03:12:59.873Z,32.47
2018-02-20T03:15:28.030Z,32.50
2018-02-20T03:17:56.166Z,30.55
2018-02-20T03:20:24.321Z,32.85
2018-02-20T03:22:52.454Z,34.03
2018-02-20T03:25:20.610Z,30.83
2018-02-20T03:27:48.743Z,30.37
2018-02-20T03:30:16.910Z,33.22
2018-02-20T03:32:45.050Z,32.55
2018-02-20T03:35:13.206Z,30.98
2018-02-20T03:37:41.334Z,31.77
2018-02-20T03:40:09.506Z,32.25
2018-02-20T03:42:37.646Z,33.08
2018-02-20T03:45:05.801Z,31.58
2018-02-20T03:47:33.936Z,31.48
2018-02-20T03:50:02.116Z,32.47
2018-02-20T03:52:30.245Z,31.92
2018-02-20T03:54:58.406Z,30.10
2018-02-20T03:57:26.542Z,33.30
2018-02-20T03:59:54.701Z,31.25
2018-02-20T04:02:22.833Z,32.63
2018-02-20T04:04:50.996Z,30.23
2018-02-20T04:07:19.138Z,32.65
2018-02-20T04:09:47.307Z,30.40
2018-02-20T04:12:15.441Z,31.52
2018-02-20T04:14:43.602Z,33.33
2018-02-20T04:17:11.733Z,30.35
2018-02-20T04:19:39.903Z,30.75
2018-02-20T04:22:08.043Z,33.42
2018-02-20T04:24:36.978Z,31.55
2018-02-20T04:27:05.125Z,31.58
2018-02-20T04:29:33.288Z,35.08
2018-02-20T04:32:01.423Z,34.58
2018-02-20T04:34:29.588Z,34.47
2018-02-20T04:36:57.730Z,32.35
2018-02-20T04:39:25.915Z,33.85
2018-02-20T04:41:54.050Z,32.08
2018-02-20T04:44:22.208Z,32.92
2018-02-20T04:46:50.342Z,34.72
2018-02-20T04:49:18.501Z,32.88
2018-02-20T04:51:46.643Z,31.75
2018-02-20T04:54:14.816Z,32.30
2018-02-20T04:56:43.727Z,34.92
2018-02-20T04:59:11.888Z,35.05
2018-02-20T05:01:40.781Z,35.00
2018-02-20T05:04:08.940Z,34.60
2018-02-20T05:06:37.841Z,33.38
2018-02-20T05:09:05.981Z,33.88
2018-02-20T05:11:34.141Z,34.35
2018-02-20T05:14:02.286Z,37.10
2018-02-20T05:16:30.452Z,34.50
2018-02-20T05:18:58.588Z,37.70
2018-02-20T05:21:26.762Z,33.53
2018-02-20T05:23:54.902Z,35.95
2018-02-20T05:26:23.073Z,38.60
2018-02-20T05:28:51.206Z,36.75
2018-02-20T05:31:20.127Z,39.92
2018-02-20T05:33:48.272Z,35.35
2018-02-20T05:36:17.204Z,34.28
2018-02-20T05:38:45.335Z,34.45
2018-02-20T05:41:14.263Z,36.15
2018-02-20T05:43:42.398Z,37.65
2018-02-20T05:46:11.329Z,36.92
2018-02-20T05:48:39.466Z,39.17
2018-02-20T05:51:08.396Z,36.72
2018-02-20T05:53:36.530Z,41.13
2018-02-20T05:56:05.458Z,41.37
2018-02-20T05:58:33.596Z,39.75
2018-02-20T06:01:02.526Z,41.10
2018-02-20T06:03:30.661Z,39.45
2018-02-20T06:05:59.585Z,41.47
2018-02-20T06:08:27.730Z,39.42
2018-02-20T06:10:55.896Z,39.63
2018-02-20T06:13:24.042Z,44.20
2018-02-20T06:15:52.201Z,41.60
2018-02-20T06:18:20.345Z,42.80
2018-02-20T06:20:48.509Z,43.38
2018-02-20T06:23:16.646Z,43.55
2018-02-20T06:25:44.804Z,42.75
2018-02-20T06:28:12.941Z,40.90
2018-02-20T06:30:41.105Z,40.17
2018-02-20T06:33:09.247Z,40.80
2018-02-20T06:35:37.411Z,44.58
2018-02-20T06:38:05.553Z,40.70
2018-02-20T06:40:33.713Z,41.37
2018-02-20T06:43:01.850Z,40.97
2018-02-20T06:45:30.022Z,44.33
2018-02-20T06:47:58.931Z,45.17
2018-02-20T06:50:27.102Z,45.20
2018-02-20T06:52:55.236Z,42.70
2018-02-20T06:55:23.397Z,44.58
2018-02-20T06:57:51.528Z,44.88
2018-02-20T07:00:19.685Z,43.17
2018-02-20T07:02:47.887Z,43.67
2018-02-20T07:05:16.001Z,45.75
2018-02-20T07:07:44.161Z,43.15
2018-02-20T07:10:12.325Z,41.37
2018-02-20T07:12:40.464Z,37.95
2018-02-20T07:15:08.628Z,43.45
2018-02-20T07:17:36.787Z,42.97
2018-02-20T07:20:05.718Z,39.50
2018-02-20T07:22:33.867Z,42.97
2018-02-20T07:25:02.800Z,44.05
2018-02-20T07:27:30.934Z,40.47
2018-02-20T07:29:59.072Z,43.97
2018-02-20T07:32:27.242Z,43.13
2018-02-20T07:34:55.381Z,49.85
2018-02-20T07:37:23.543Z,47.33
2018-02-20T07:39:51.692Z,44.13
2018-02-20T07:42:19.850Z,48.35
2018-02-20T07:44:47.995Z,44.25
2018-02-20T07:47:16.148Z,43.70
2018-02-20T07:49:44.289Z,45.53
2018-02-20T07:52:12.450Z,44.75
2018-02-20T07:54:40.580Z,45.92
2018-02-20T07:57:08.742Z,46.13
2018-02-20T07:59:36.934Z,43.97
2018-02-20T08:02:05.097Z,42.28
2018-02-20T08:04:33.247Z,43.05
2018-02-20T08:07:01.442Z,45.72
2018-02-20T08:09:29.580Z,40.15
2018-02-20T08:11:57.749Z,45.50
2018-02-20T08:14:26.661Z,45.40
2018-02-20T08:16:54.854Z,43.78
2018-02-20T08:19:22.987Z,40.50
2018-02-20T08:21:51.910Z,39.75
2018-02-20T08:24:20.041Z,40.38
2018-02-20T08:26:48.204Z,40.08
2018-02-20T08:29:16.330Z,38.00
2018-02-20T08:31:44.490Z,39.35
2018-02-20T08:34:12.632Z,39.97
2018-02-20T08:36:40.792Z,35.03
2018-02-20T08:39:08.924Z,35.22
2018-02-20T08:41:37.090Z,37.17
2018-02-20T08:44:05.222Z,36.28
2018-02-20T08:46:33.377Z,34.58
2018-02-20T08:49:01.514Z,36.50
2018-02-20T08:51:29.878Z,35.13
2018-02-20T08:53:58.009Z,37.13
2018-02-20T08:56:26.163Z,36.47
2018-02-20T08:58:54.401Z,36.88
2018-02-20T09:01:22.562Z,36.28
2018-02-20T09:03:51.462Z,36.60
2018-02-20T09:06:19.629Z,37.95
2018-02-20T09:08:48.526Z,37.08
2018-02-20T09:11:16.696Z,36.65
2018-02-20T09:13:45.590Z,38.25
2018-02-20T09:16:13.755Z,38.50
2018-02-20T09:18:42.699Z,37.70
2018-02-20T09:21:10.855Z,37.10
2018-02-20T09:23:38.986Z,37.00
2018-02-20T09:26:07.152Z,36.35
2018-02-20T09:28:35.280Z,37.33
2018-02-20T09:31:03.441Z,35.25
2018-02-20T09:33:31.577Z,36.63
2018-02-20T09:35:59.734Z,37.30
2018-02-20T09:38:27.870Z,36.35
2018-02-20T09:40:56.028Z,35.55
2018-02-20T09:43:24.158Z,32.78
2018-02-20T09:45:52.324Z,35.25
2018-02-20T09:48:20.454Z,34.58
2018-02-20T09:50:48.585Z,37.15
2018-02-20T09:53:16.747Z,35.03
2018-02-20T09:55:44.881Z,35.58
2018-02-20T09:58:13.039Z,34.55
2018-02-20T10:00:41.164Z,34.97
2018-02-20T10:03:09.325Z,32.25
2018-02-20T10:05:37.457Z,33.25
2018-02-20T10:08:05.622Z,33.70
2018-02-20T10:10:33.771Z,33.38
2018-02-20T10:13:02.707Z,35.28
2018-02-20T10:15:30.843Z,36.10
2018-02-20T10:17:59.773Z,34.08
2018-02-20T10:20:27.915Z,33.03
2018-02-20T10:22:56.078Z,32.90
2018-02-20T10:25:24.216Z,32.35
2018-02-20T10:27:52.384Z,30.27
2018-02-20T10:30:20.518Z,32.35
2018-02-20T10:32:48.684Z,29.33
2018-02-20T10:35:16.830Z,29.58
2018-02-20T10:37:44.998Z,28.45
2018-02-20T10:40:13.141Z,28.87
2018-02-20T10:42:41.298Z,28.85
2018-02-20T10:45:09.454Z,28.42
2018-02-20T10:47:37.641Z,30.35
2018-02-20T10:50:05.768Z,28.92
2018-02-20T10:52:33.935Z,27.73
2018-02-20T10:55:02.066Z,28.75
2018-02-20T10:57:30.225Z,29.50
2018-02-20T10:59:58.358Z,28.62
2018-02-20T11:02:26.526Z,26.92
2018-02-20T11:04:54.671Z,26.60
2018-02-20T11:07:22.839Z,26.55
2018-02-20T11:09:50.969Z,27.55
2018-02-20T11:12:19.140Z,27.90
2018-02-20T11:14:47.273Z,24.30
2018-02-20T11:17:15.431Z,26.25
2018-02-20T11:19:43.571Z,25.42
2018-02-20T11:22:11.777Z,26.83
2018-02-20T11:24:39.916Z,25.80
2018-02-20T11:27:08.841Z,25.77
2018-02-20T11:29:36.978Z,27.05
2018-02-20T11:32:05.904Z,26.15
2018-02-20T11:34:34.058Z,24.70
2018-02-20T11:37:02.997Z,26.33
2018-02-20T11:39:31.141Z,22.08
2018-02-20T11:41:59.302Z,25.08
2018-02-20T11:44:27.439Z,25.70
2018-02-20T11:46:55.597Z,24.35
2018-02-20T11:49:23.730Z,26.05
2018-02-20T11:51:51.907Z,25.15
2018-02-20T11:54:20.044Z,23.70
2018-02-20T11:56:48.209Z,23.00
2018-02-20T11:59:16.342Z,23.85
2018-02-20T12:01:44.509Z,24.52
2018-02-20T12:04:12.679Z,26.65
2018-02-20T12:06:40.838Z,25.17
2018-02-20T12:09:08.971Z,23.87
2018-02-20T12:11:37.132Z,24.80
2018-02-20T12:14:06.033Z,27.27
2018-02-20T12:16:34.221Z,26.83
2018-02-20T12:19:02.374Z,24.87
2018-02-20T12:21:30.512Z,25.35
2018-02-20T12:23:58.675Z,24.98
2018-02-20T12:26:26.800Z,23.02
2018-02-20T12:28:54.966Z,28.38
2018-02-20T12:31:23.124Z,23.80
2018-02-20T12:33:51.285Z,24.45
2018-02-20T12:36:19.429Z,24.70
2018-02-20T12:38:47.599Z,24.25
2018-02-20T12:41:16.513Z,23.83
2018-02-20T12:43:45.483Z,24.52
2018-02-20T12:46:13.646Z,24.87
2018-02-20T12:48:42.582Z,25.20
2018-02-20T12:51:10.726Z,26.62
2018-02-20T12:53:39.670Z,27.48
2018-02-20T12:56:07.850Z,25.50
2018-02-20T12:58:36.070Z,24.12
2018-02-20T13:01:04.257Z,23.40
2018-02-20T13:03:32.437Z,24.77
2018-02-20T13:06:00.588Z,22.60
2018-02-20T13:08:28.754Z,24.67
2018-02-20T13:10:57.653Z,22.05
2018-02-20T13:13:25.898Z,22.05
2018-02-20T13:15:54.029Z,24.50
2018-02-20T13:18:22.207Z,22.20
2018-02-20T13:20:50.334Z,21.60
2018-02-20T13:23:19.259Z,19.27
2018-02-20T13:25:47.399Z,20.88
2018-02-20T13:28:16.325Z,23.95
2018-02-20T13:30:44.462Z,21.77
2018-02-20T13:33:13.398Z,21.90
2018-02-20T13:35:41.540Z,22.23
2018-02-20T13:38:10.456Z,22.90
2018-02-20T13:40:38.606Z,20.27
2018-02-20T13:43:07.530Z,22.58
2018-02-20T13:45:35.669Z,20.90
2018-02-20T13:48:04.624Z,23.92
2018-02-20T13:50:32.761Z,21.95
2018-02-20T13:53:00.946Z,24.10
2018-02-20T13:55:29.092Z,24.08
2018-02-20T13:57:57.257Z,22.77
2018-02-20T14:00:26.170Z,24.17
2018-02-20T14:02:54.330Z,24.42
2018-02-20T14:05:22.477Z,21.27
2018-02-20T14:07:50.665Z,22.55
2018-02-20T14:10:18.794Z,20.83
2018-02-20T14:12:46.960Z,22.13
2018-02-20T14:15:15.089Z,20.05
2018-02-20T14:17:43.279Z,19.87
2018-02-20T14:20:11.431Z,18.80
2018-02-20T14:22:40.383Z,19.55
2018-02-20T14:25:08.533Z,19.70
2018-02-20T14:27:36.694Z,20.12
2018-02-20T14:30:04.848Z,22.08
2018-02-20T14:32:33.001Z,19.95
2018-02-20T14:35:01.165Z,21.23
2018-02-20T14:37:29.322Z,21.60
2018-02-20T14:39:57.449Z,23.05
2018-02-20T14:42:25.611Z,21.02
2018-02-20T14:44:54.532Z,21.40
2018-02-20T14:47:22.684Z,21.70
2018-02-20T14:49:51.580Z,20.98
2018-02-20T14:52:19.753Z,21.98
2018-02-20T14:54:47.887Z,24.52
2018-02-20T14:57:16.054Z,23.30
2018-02-20T14:59:44.222Z,23.80
2018-02-20T15:02:12.359Z,22.13
2018-02-20T15:04:40.531Z,23.17
2018-02-20T15:07:08.661Z,21.92
2018-02-20T15:09:36.827Z,24.85
2018-02-20T15:12:04.963Z,22.95
2018-02-20T15:14:33.153Z,19.77
2018-02-20T15:17:01.270Z,22.27
2018-02-20T15:19:29.425Z,24.75
2018-02-20T15:21:57.586Z,25.88
2018-02-20T15:24:25.738Z,24.85
2018-02-20T15:26:53.894Z,23.73
2018-02-20T15:29:22.104Z,26.83
2018-02-20T15:31:50.235Z,27.80
2018-02-20T15:34:18.426Z,24.02
2018-02-20T15:36:46.567Z,26.42
2018-02-20T15:39:15.489Z,25.15
2018-02-20T15:41:43.663Z,26.75
2018-02-20T15:44:11.831Z,27.13
2018-02-20T15:46:39.969Z,25.73
2018-02-20T15:49:08.131Z,25.17
2018-02-20T15:51:36.277Z,27.02
2018-02-20T15:54:04.474Z,26.35
2018-02-20T15:56:32.601Z,27.60
2018-02-20T15:59:00.770Z,26.08
2018-02-20T16:01:28.921Z,27.48
2018-02-20T16:03:57.084Z,26.92
2018-02-20T16:06:25.233Z,26.15
2018-02-20T16:08:53.390Z,27.92
2018-02-20T16:11:21.556Z,24.58
2018-02-20T16:13:50.342Z,30.17
2018-02-20T16:16:18.486Z,26.90
2018-02-20T16:18:46.675Z,28.40
2018-02-20T16:21:14.891Z,25.73
2018-02-20T16:23:43.143Z,28.40
2018-02-20T16:26:11.287Z,26.35
2018-02-20T16:28:39.450Z,27.42
2018-02-20T16:31:08.430Z,29.05
2018-02-20T16:33:36.635Z,30.40
2018-02-20T16:36:04.777Z,31.35
2018-02-20T16:38:32.940Z,31.52
2018-02-20T16:41:01.070Z,28.95
2018-02-20T16:43:29.236Z,26.60
2018-02-20T16:45:57.380Z,26.40
2018-02-20T16:48:25.530Z,24.73
2018-02-20T16:50:53.653Z,23.87
2018-02-20T16:53:21.847Z,21.80
2018-02-20T16:55:49.975Z,20.90
2018-02-20T16:58:18.178Z,20.50
2018-02-20T17:00:46.310Z,23.08
2018-02-20T17:03:14.491Z,22.35
2018-02-20T17:05:42.639Z,24.37
2018-02-20T17:08:10.827Z,21.37
2018-02-20T17:10:38.969Z,23.73
2018-02-20T17:13:07.144Z,22.27
2018-02-20T17:15:35.387Z,22.73
2018-02-20T17:18:03.542Z,20.42
2018-02-20T17:20:31.717Z,18.92
2018-02-20T17:23:00.620Z,19.50
2018-02-20T17:25:28.784Z,20.80
2018-02-20T17:27:57.713Z,19.77
2018-02-20T17:30:25.861Z,18.30
2018-02-20T17:32:54.122Z,21.45
2018-02-20T17:35:22.298Z,21.23
2018-02-20T17:37:50.444Z,21.37
2018-02-20T17:40:18.729Z,19.60
2018-02-20T17:42:47.023Z,19.77
2018-02-20T17:45:15.278Z,20.12
2018-02-20T17:47:43.407Z,20.88
2018-02-20T17:50:11.593Z,20.90
2018-02-20T17:52:39.766Z,18.75
2018-02-20T17:55:07.926Z,20.10
2018-02-20T17:57:36.219Z,20.00
2018-02-20T18:00:04.776Z,21.30
2018-02-20T18:02:33.814Z,21.42
2018-02-20T18:05:03.511Z,25.48
2018-02-20T18:07:32.141Z,21.17
2018-02-20T18:10:00.447Z,20.08
2018-02-20T18:12:29.009Z,18.67
2018-02-20T18:14:57.571Z,21.05
2018-02-20T18:17:27.200Z,18.08
2018-02-20T18:19:56.032Z,18.73
2018-02-20T18:22:24.732Z,22.10
2018-02-20T18:24:53.566Z,20.55
2018-02-20T18:27:22.581Z,21.05
2018-02-20T18:29:51.134Z,19.85
2018-02-20T18:32:19.318Z,18.60
2018-02-20T18:34:48.988Z,19.27
2018-02-20T18:37:17.170Z,21.50
2018-02-20T18:39:45.430Z,20.92
2018-02-20T18:42:13.575Z,18.67
2018-02-20T18:44:41.870Z,21.33
2018-02-20T18:47:10.190Z,19.35
2018-02-20T18:49:39.210Z,18.85
2018-02-20T18:52:07.384Z,19.45
2018-02-20T18:54:35.683Z,19.33
2018-02-20T18:57:03.861Z,18.58
2018-02-20T18:59:32.236Z,19.30
2018-02-20T19:02:00.476Z,18.80
2018-02-20T19:04:28.771Z,19.42
2018-02-20T19:06:57.012Z,19.60
2018-02-20T19:09:25.381Z,20.20
2018-02-20T19:11:53.917Z,22.02
2018-02-20T19:14:28.806Z,21.50
2018-02-20T19:16:57.714Z,19.50
2018-02-20T19:19:25.997Z,19.50
2018-02-20T19:21:54.212Z,18.45
2018-02-20T19:24:22.473Z,19.58
2018-02-20T19:26:50.660Z,21.10
2018-02-20T19:29:18.912Z,20.67
2018-02-20T19:31:47.053Z,19.58
2018-02-20T19:34:15.211Z,19.75
2018-02-20T19:36:44.126Z,18.10
2018-02-20T19:39:12.307Z,19.73
2018-02-20T19:41:40.451Z,19.75
2018-02-20T19:44:08.627Z,22.15
2018-02-20T19:46:36.775Z,18.65
2018-02-20T19:49:04.994Z,20.12
2018-02-20T19:51:33.162Z,20.65
2018-02-20T19:54:01.324Z,22.58
2018-02-20T19:56:30.235Z,23.30
2018-02-20T19:58:58.419Z,20.95
2018-02-20T20:01:26.558Z,20.62
2018-02-20T20:03:54.774Z,19.10
2018-02-20T20:06:22.979Z,21.58
2018-02-20T20:08:51.249Z,21.08
2018-02-20T20:11:19.456Z,20.02
2018-02-20T20:13:47.596Z,21.10
2018-02-20T20:16:15.770Z,21.60
2018-02-20T20:18:43.943Z,21.92
2018-02-20T20:21:12.180Z,19.02
2018-02-20T20:23:40.351Z,21.27
2018-02-20T20:26:08.585Z,19.98
2018-02-20T20:28:36.846Z,20.73
2018-02-20T20:31:05.049Z,20.20
2018-02-20T20:33:33.337Z,21.35
2018-02-20T20:36:01.693Z,21.27
2018-02-20T20:38:29.895Z,23.17
2018-02-20T20:40:58.121Z,22.75
2018-02-20T20:43:26.271Z,21.30
2018-02-20T20:45:54.543Z,22.42
2018-02-20T20:48:22.772Z,20.90
2018-02-20T20:50:50.970Z,22.27
2018-02-20T20:53:19.975Z,20.55
2018-02-20T20:55:48.165Z,22.75
2018-02-20T20:58:16.308Z,22.55
2018-02-20T21:00:44.583Z,22.13
2018-02-20T21:03:12.810Z,21.52
2018-02-20T21:05:41.050Z,20.27
2018-02-20T21:08:09.265Z,23.15
2018-02-20T21:10:37.496Z,21.62
2018-02-20T21:13:05.634Z,20.25
2018-02-20T21:15:33.832Z,22.05
2018-02-20T21:18:02.781Z,20.25
2018-02-20T21:20:31.045Z,22.23
2018-02-20T21:22:59.440Z,21.50
2018-02-20T21:25:27.581Z,24.12
2018-02-20T21:27:55.749Z,22.62
2018-02-20T21:30:23.907Z,23.42
2018-02-20T21:32:52.144Z,25.73
2018-02-20T21:35:20.625Z,25.02
2018-02-20T21:37:48.918Z,24.92
2018-02-20T21:40:17.117Z,25.55
2018-02-20T21:42:45.274Z,23.83
2018-02-20T21:45:13.444Z,24.87
2018-02-20T21:47:41.693Z,22.90
2018-02-20T21:50:09.871Z,25.77
2018-02-20T21:52:38.054Z,23.27
2018-02-20T21:55:06.274Z,24.85
2018-02-20T21:57:34.432Z,24.67
2018-02-20T22:00:03.384Z,22.80
2018-02-20T22:02:31.541Z,25.67
2018-02-20T22:04:59.738Z,24.92
2018-02-20T22:07:27.920Z,23.35
2018-02-20T22:09:56.112Z,24.75
2018-02-20T22:12:24.266Z,26.85
2018-02-20T22:14:52.426Z,26.73
2018-02-20T22:17:20.568Z,24.58
2018-02-20T22:19:48.725Z,25.40
2018-02-20T22:22:16.870Z,25.98
2018-02-20T22:24:45.038Z,28.70
2018-02-20T22:27:13.172Z,24.85
2018-02-20T22:29:41.386Z,23.87
2018-02-20T22:32:09.554Z,25.30
2018-02-20T22:34:37.698Z,30.55
2018-02-20T22:37:05.868Z,23.98
2018-02-20T22:39:34.017Z,26.80
2018-02-20T22:42:02.212Z,24.55
2018-02-20T22:44:30.345Z,27.13
2018-02-20T22:46:58.522Z,23.55
2018-02-20T22:49:26.680Z,26.77
2018-02-20T22:51:55.017Z,25.30
2018-02-20T22:54:23.203Z,24.15
2018-02-20T22:56:51.469Z,26.23
2018-02-20T22:59:19.757Z,24.35
2018-02-20T23:01:47.930Z,24.55
2018-02-20T23:04:16.063Z,24.30
2018-02-20T23:06:44.230Z,27.40
2018-02-20T23:09:12.367Z,25.23
2018-02-20T23:11:47.366Z,24.12
2018-02-20T23:14:15.498Z,23.62
2018-02-20T23:16:44.441Z,25.58
2018-02-20T23:19:12.584Z,25.60
2018-02-20T23:21:40.758Z,25.90
2018-02-20T23:24:08.902Z,25.23
2018-02-20T23:26:37.070Z,26.30
2018-02-20T23:29:05.254Z,24.58
2018-02-20T23:31:33.404Z,24.20
2018-02-20T23:34:01.537Z,24.08
2018-02-20T23:36:29.715Z,24.37
2018-02-20T23:38:57.852Z,26.60
2018-02-20T23:41:26.040Z,27.52
2018-02-20T23:43:54.186Z,24.05
2018-02-20T23:46:22.352Z,27.08
2018-02-20T23:48:50.489Z,28.35
2018-02-20T23:51:24.361Z,25.08
2018-02-20T23:53:52.505Z,25.30
2018-02-20T23:56:20.668Z,26.23
2018-02-20T23:58:48.814Z,24.92
